sensor_id;sensor_type;location;lat;lon;timestamp;pressure;altitude;pressure_sealevel;temperature;humidity
27980;BME280;15315;50.836;4.430;2022-11-15T00:04:33;100287.97;;;14.13;100.00
27980;BME280;15315;50.836;4.430;2022-11-15T00:14:33;100292.06;;;13.88;100.00
27980;BME280;15315;50.836;4.430;2022-11-15T00:24:34;100296.38;;;14.19;100.00
27980;BME280;15315;50.836;4.430;2022-11-15T00:34:34;100309.56;;;13.84;100.00
27980;BME280;15315;50.836;4.430;2022-11-15T00:44:35;100315.22;;;14.11;100.00
27980;BME280;15315;50.836;4.430;2022-11-15T00:54:35;100315.06;;;14.13;100.00
27980;BME280;15315;50.836;4.430;2022-11-15T01:04:35;100314.13;;;14.52;100.00
27980;BME280;15315;50.836;4.430;2022-11-15T01:14:36;100310.50;;;14.23;100.00
27980;BME280;15315;50.836;4.430;2022-11-15T01:24:36;100308.94;;;14.11;100.00
27980;BME280;15315;50.836;4.430;2022-11-15T01:34:37;100282.84;;;14.29;100.00
27980;BME280;15315;50.836;4.430;2022-11-15T01:44:49;100280.13;;;14.39;100.00
27980;BME280;15315;50.836;4.430;2022-11-15T01:54:53;100279.81;;;14.70;100.00
27980;BME280;15315;50.836;4.430;2022-11-15T02:04:56;100271.53;;;14.81;100.00
27980;BME280;15315;50.836;4.430;2022-11-15T02:14:56;100256.88;;;15.11;100.00
27980;BME280;15315;50.836;4.430;2022-11-15T02:25:04;100241.75;;;15.09;100.00
27980;BME280;15315;50.836;4.430;2022-11-15T02:45:52;100220.19;;;15.07;100.00
27980;BME280;15315;50.836;4.430;2022-11-15T02:55:56;100225.19;;;15.02;100.00
27980;BME280;15315;50.836;4.430;2022-11-15T03:26:29;100203.88;;;14.61;100.00
27980;BME280;15315;50.836;4.430;2022-11-15T03:36:32;100210.03;;;14.72;100.00
27980;BME280;15315;50.836;4.430;2022-11-15T03:46:47;100220.31;;;14.02;100.00
27980;BME280;15315;50.836;4.430;2022-11-15T03:56:51;100224.63;;;14.23;100.00
27980;BME280;15315;50.836;4.430;2022-11-15T04:06:52;100224.16;;;13.80;100.00
27980;BME280;15315;50.836;4.430;2022-11-15T04:16:52;100209.63;;;14.29;100.00
27980;BME280;15315;50.836;4.430;2022-11-15T04:26:53;100208.16;;;14.35;100.00
27980;BME280;15315;50.836;4.430;2022-11-15T04:36:53;100207.53;;;14.89;100.00
27980;BME280;15315;50.836;4.430;2022-11-15T04:47:11;100203.75;;;14.62;100.00
27980;BME280;15315;50.836;4.430;2022-11-15T04:57:12;100207.06;;;14.47;100.00
27980;BME280;15315;50.836;4.430;2022-11-15T05:07:12;100208.03;;;14.17;100.00
27980;BME280;15315;50.836;4.430;2022-11-15T05:17:13;100209.47;;;14.02;100.00
27980;BME280;15315;50.836;4.430;2022-11-15T05:27:13;100208.34;;;14.14;100.00
27980;BME280;15315;50.836;4.430;2022-11-15T05:37:14;100205.63;;;13.95;100.00
27980;BME280;15315;50.836;4.430;2022-11-15T05:47:24;100199.50;;;14.02;100.00
27980;BME280;15315;50.836;4.430;2022-11-15T05:57:25;100215.00;;;13.72;100.00
27980;BME280;15315;50.836;4.430;2022-11-15T06:07:26;100213.06;;;13.93;100.00
27980;BME280;15315;50.836;4.430;2022-11-15T06:17:26;100200.56;;;13.52;100.00
27980;BME280;15315;50.836;4.430;2022-11-15T06:27:27;100194.75;;;13.66;100.00
27980;BME280;15315;50.836;4.430;2022-11-15T06:37:27;100190.78;;;13.70;100.00
27980;BME280;15315;50.836;4.430;2022-11-15T06:47:27;100190.16;;;13.47;100.00
27980;BME280;15315;50.836;4.430;2022-11-15T06:57:28;100200.38;;;13.44;100.00
27980;BME280;15315;50.836;4.430;2022-11-15T07:07:28;100212.94;;;13.15;100.00
27980;BME280;15315;50.836;4.430;2022-11-15T07:17:28;100220.97;;;13.26;100.00
27980;BME280;15315;50.836;4.430;2022-11-15T07:27:29;100201.50;;;13.32;100.00
27980;BME280;15315;50.836;4.430;2022-11-15T07:37:29;100215.66;;;12.84;100.00
27980;BME280;15315;50.836;4.430;2022-11-15T07:47:29;100212.41;;;13.11;100.00
27980;BME280;15315;50.836;4.430;2022-11-15T07:57:30;100218.09;;;13.18;100.00
27980;BME280;15315;50.836;4.430;2022-11-15T08:07:31;100184.47;;;12.80;100.00
27980;BME280;15315;50.836;4.430;2022-11-15T08:17:31;100177.00;;;12.93;100.00
27980;BME280;15315;50.836;4.430;2022-11-15T08:27:32;100153.03;;;13.29;100.00
27980;BME280;15315;50.836;4.430;2022-11-15T08:37:33;100146.75;;;13.28;100.00
27980;BME280;15315;50.836;4.430;2022-11-15T08:47:34;100137.88;;;13.07;100.00
27980;BME280;15315;50.836;4.430;2022-11-15T08:57:34;100141.44;;;13.08;100.00
27980;BME280;15315;50.836;4.430;2022-11-15T09:07:35;100143.59;;;13.73;100.00
27980;BME280;15315;50.836;4.430;2022-11-15T09:17:35;100124.34;;;13.76;100.00
27980;BME280;15315;50.836;4.430;2022-11-15T09:27:36;100117.63;;;13.80;100.00
27980;BME280;15315;50.836;4.430;2022-11-15T09:37:36;100112.09;;;13.62;100.00
27980;BME280;15315;50.836;4.430;2022-11-15T09:58:26;100083.81;;;13.36;100.00
27980;BME280;15315;50.836;4.430;2022-11-15T10:29:04;100031.56;;;14.84;100.00
27980;BME280;15315;50.836;4.430;2022-11-15T10:39:04;100015.22;;;15.56;100.00
27980;BME280;15315;50.836;4.430;2022-11-15T10:49:28;99981.78;;;14.75;100.00
27980;BME280;15315;50.836;4.430;2022-11-15T10:59:32;99958.19;;;14.86;100.00
27980;BME280;15315;50.836;4.430;2022-11-15T11:09:37;99938.53;;;14.74;100.00
27980;BME280;15315;50.836;4.430;2022-11-15T11:20:06;99920.88;;;15.05;100.00
27980;BME280;15315;50.836;4.430;2022-11-15T11:40:43;99888.84;;;16.12;100.00
27980;BME280;15315;50.836;4.430;2022-11-15T11:50:44;99862.53;;;16.20;98.43
27980;BME280;15315;50.836;4.430;2022-11-15T12:01:17;99842.50;;;15.79;100.00
27980;BME280;15315;50.836;4.430;2022-11-15T12:31:47;99788.03;;;15.97;100.00
27980;BME280;15315;50.836;4.430;2022-11-15T13:01:59;99726.09;;;15.33;100.00
27980;BME280;15315;50.836;4.430;2022-11-15T13:22:04;99672.47;;;16.01;100.00
27980;BME280;15315;50.836;4.430;2022-11-15T13:32:25;99665.38;;;16.00;100.00
27980;BME280;15315;50.836;4.430;2022-11-15T13:42:28;99649.47;;;15.55;100.00
27980;BME280;15315;50.836;4.430;2022-11-15T13:52:32;99631.81;;;15.51;100.00
27980;BME280;15315;50.836;4.430;2022-11-15T14:02:35;99618.13;;;16.17;100.00
27980;BME280;15315;50.836;4.430;2022-11-15T14:12:36;99602.94;;;16.79;100.00
27980;BME280;15315;50.836;4.430;2022-11-15T14:22:36;99605.22;;;16.43;100.00
27980;BME280;15315;50.836;4.430;2022-11-15T14:32:46;99598.91;;;16.59;100.00
27980;BME280;15315;50.836;4.430;2022-11-15T14:42:48;99583.97;;;15.90;100.00
27980;BME280;15315;50.836;4.430;2022-11-15T14:52:49;99581.41;;;16.21;100.00
27980;BME280;15315;50.836;4.430;2022-11-15T15:02:52;99573.44;;;15.71;100.00
27980;BME280;15315;50.836;4.430;2022-11-15T15:12:53;99558.72;;;15.24;100.00
27980;BME280;15315;50.836;4.430;2022-11-15T15:22:54;99536.41;;;15.94;100.00
27980;BME280;15315;50.836;4.430;2022-11-15T15:32:55;99520.44;;;16.07;100.00
27980;BME280;15315;50.836;4.430;2022-11-15T15:42:55;99518.53;;;16.16;100.00
27980;BME280;15315;50.836;4.430;2022-11-15T15:52:58;99524.50;;;16.28;100.00
27980;BME280;15315;50.836;4.430;2022-11-15T16:02:59;99517.56;;;15.85;100.00
27980;BME280;15315;50.836;4.430;2022-11-15T16:12:59;99497.88;;;15.67;100.00
27980;BME280;15315;50.836;4.430;2022-11-15T16:23:01;99494.13;;;15.92;100.00
27980;BME280;15315;50.836;4.430;2022-11-15T16:33:02;99492.59;;;15.49;100.00
27980;BME280;15315;50.836;4.430;2022-11-15T16:43:02;99496.69;;;15.77;100.00
27980;BME280;15315;50.836;4.430;2022-11-15T16:53:06;99494.63;;;15.47;100.00
27980;BME280;15315;50.836;4.430;2022-11-15T17:03:06;99482.38;;;15.91;100.00
27980;BME280;15315;50.836;4.430;2022-11-15T17:13:13;99476.72;;;16.17;100.00
27980;BME280;15315;50.836;4.430;2022-11-15T17:23:13;99477.28;;;16.04;100.00
27980;BME280;15315;50.836;4.430;2022-11-15T17:33:14;99476.44;;;15.88;100.00
27980;BME280;15315;50.836;4.430;2022-11-15T17:43:14;99461.28;;;16.09;100.00
27980;BME280;15315;50.836;4.430;2022-11-15T17:53:15;99458.91;;;15.98;100.00
27980;BME280;15315;50.836;4.430;2022-11-15T18:03:16;99441.75;;;16.06;100.00
27980;BME280;15315;50.836;4.430;2022-11-15T18:13:16;99421.69;;;16.07;100.00
27980;BME280;15315;50.836;4.430;2022-11-15T18:23:16;99420.75;;;15.84;100.00
27980;BME280;15315;50.836;4.430;2022-11-15T18:33:17;99427.69;;;15.86;100.00
27980;BME280;15315;50.836;4.430;2022-11-15T18:43:18;99426.03;;;15.69;100.00
27980;BME280;15315;50.836;4.430;2022-11-15T18:53:20;99409.75;;;15.61;100.00
27980;BME280;15315;50.836;4.430;2022-11-15T19:03:20;99406.31;;;15.83;100.00
27980;BME280;15315;50.836;4.430;2022-11-15T19:13:20;99404.66;;;15.50;100.00
27980;BME280;15315;50.836;4.430;2022-11-15T19:23:24;99379.78;;;15.93;100.00
27980;BME280;15315;50.836;4.430;2022-11-15T19:33:25;99381.75;;;16.16;100.00
27980;BME280;15315;50.836;4.430;2022-11-15T19:43:25;99375.19;;;15.94;100.00
27980;BME280;15315;50.836;4.430;2022-11-15T19:53:26;99373.44;;;16.09;100.00
27980;BME280;15315;50.836;4.430;2022-11-15T20:03:28;99365.72;;;15.82;100.00
27980;BME280;15315;50.836;4.430;2022-11-15T20:13:28;99365.38;;;15.85;100.00
27980;BME280;15315;50.836;4.430;2022-11-15T20:23:29;99349.44;;;15.74;100.00
27980;BME280;15315;50.836;4.430;2022-11-15T20:33:29;99345.63;;;15.99;100.00
27980;BME280;15315;50.836;4.430;2022-11-15T20:43:30;99335.19;;;15.72;100.00
27980;BME280;15315;50.836;4.430;2022-11-15T20:53:31;99338.91;;;15.71;100.00
27980;BME280;15315;50.836;4.430;2022-11-15T21:03:31;99329.56;;;15.73;100.00
27980;BME280;15315;50.836;4.430;2022-11-15T21:13:32;99321.38;;;15.89;100.00
27980;BME280;15315;50.836;4.430;2022-11-15T21:23:32;99308.41;;;15.53;100.00
27980;BME280;15315;50.836;4.430;2022-11-15T21:33:33;99299.13;;;15.86;100.00
27980;BME280;15315;50.836;4.430;2022-11-15T21:43:33;99289.97;;;16.18;100.00
27980;BME280;15315;50.836;4.430;2022-11-15T21:53:33;99303.81;;;16.39;100.00
27980;BME280;15315;50.836;4.430;2022-11-15T22:03:34;99285.38;;;16.18;100.00
27980;BME280;15315;50.836;4.430;2022-11-15T22:13:35;99271.88;;;16.02;100.00
27980;BME280;15315;50.836;4.430;2022-11-15T22:23:36;99272.50;;;16.12;100.00
27980;BME280;15315;50.836;4.430;2022-11-15T22:33:37;99277.88;;;16.28;100.00
27980;BME280;15315;50.836;4.430;2022-11-15T22:43:37;99249.44;;;16.08;100.00
27980;BME280;15315;50.836;4.430;2022-11-15T22:53:38;99272.22;;;16.38;100.00
27980;BME280;15315;50.836;4.430;2022-11-15T23:03:38;99264.84;;;16.46;100.00
27980;BME280;15315;50.836;4.430;2022-11-15T23:13:38;99261.81;;;16.41;100.00
27980;BME280;15315;50.836;4.430;2022-11-15T23:23:39;99265.56;;;16.63;100.00
27980;BME280;15315;50.836;4.430;2022-11-15T23:33:40;99269.91;;;16.49;100.00
27980;BME280;15315;50.836;4.430;2022-11-15T23:43:58;99280.38;;;16.38;100.00
27980;BME280;15315;50.836;4.430;2022-11-15T23:53:59;99280.66;;;16.43;100.00
